Time;durP1;ratioP1;P1;durP2;ratioP2;P2;SDS_P1;SDS_P2;PMS_P1;PMS_P2;Temp;Humidity;BMP_temperature;BMP_pressure;BME280_temperature;BME280_humidity;BME280_pressure;Samples;Min_cycle;Max_cycle;Signal;HPM_P1;HPM_P2
2022/03/17 14:32:43;;;;;;;41.55;19.33;;;;;;;;;;5064502;28;1345871;-42
2022/03/17 14:35:08;;;;;;;43.40;21.20;;;;;;;;;;5128491;28;20035;-41
2022/03/17 14:37:37;;;;;;;44.42;21.35;;;;;;;;;;5110734;28;20020;-41
2022/03/17 14:40:03;;;;;;;46.60;22.38;;;;;;;;;;5092259;28;20024;-41
2022/03/17 14:42:30;;;;;;;45.10;21.48;;;;;;;;;;5110471;28;20028;-42
2022/03/17 14:44:56;;;;;;;40.65;20.23;;;;;;;;;;5110274;28;20031;-42
2022/03/17 14:47:21;;;;;;;49.15;20.85;;;;;;;;;;5110331;28;20079;-42
2022/03/17 14:49:46;;;;;;;40.40;20.50;;;;;;;;;;5110377;28;20015;-43
2022/03/17 14:52:12;;;;;;;38.55;20.38;;;;;;;;;;5110289;28;20423;-42
2022/03/17 14:54:38;;;;;;;44.83;20.40;;;;;;;;;;5110717;28;20484;-42
2022/03/17 14:57:03;;;;;;;44.67;23.00;;;;;;;;;;5110336;28;20051;-42
2022/03/17 14:59:29;;;;;;;49.72;23.25;;;;;;;;;;5110759;28;20487;-42
2022/03/17 15:01:55;;;;;;;38.75;20.50;;;;;;;;;;5110517;28;20105;-42
2022/03/17 15:04:20;;;;;;;46.90;23.42;;;;;;;;;;5110318;28;20060;-42
2022/03/17 15:06:45;;;;;;;39.08;19.17;;;;;;;;;;5109890;28;20027;-41
2022/03/17 15:09:10;;;;;;;40.97;19.88;;;;;;;;;;5110033;28;20027;-42
2022/03/17 15:11:36;;;;;;;42.15;21.90;;;;;;;;;;5110453;28;20445;-39
2022/03/17 15:14:01;;;;;;;44.78;21.95;;;;;;;;;;5110026;28;20008;-42
2022/03/17 15:16:27;;;;;;;42.80;21.63;;;;;;;;;;5110078;28;20012;-40
2022/03/17 15:18:52;;;;;;;45.08;22.83;;;;;;;;;;5109730;28;20359;-40
2022/03/17 15:21:17;;;;;;;35.50;18.73;;;;;;;;;;5109594;28;20355;-40
2022/03/17 15:23:43;;;;;;;31.20;18.42;;;;;;;;;;5109928;28;20450;-40
2022/03/17 15:26:09;;;;;;;40.05;19.45;;;;;;;;;;5109827;28;20035;-40
2022/03/17 15:31:18;;;;;;;34.90;18.00;;;;;;;;;;5109437;28;20094;-42
2022/03/17 15:33:44;;;;;;;33.13;18.52;;;;;;;;;;5109362;28;20047;-41
2022/03/17 15:36:09;;;;;;;30.92;18.77;;;;;;;;;;5086782;28;20027;-42
2022/03/17 15:38:35;;;;;;;37.30;17.70;;;;;;;;;;5077890;28;20066;-41
2022/03/17 15:41:00;;;;;;;30.88;19.05;;;;;;;;;;5061154;28;20035;-41
2022/03/17 15:43:26;;;;;;;40.55;21.08;;;;;;;;;;5095855;28;20374;-41
2022/03/17 15:45:51;;;;;;;39.20;19.95;;;;;;;;;;5095801;28;20036;-41
2022/03/17 15:48:17;;;;;;;38.53;20.35;;;;;;;;;;5095636;28;20390;-40
2022/03/17 15:50:46;;;;;;;36.33;21.15;;;;;;;;;;5095564;28;20031;-41
2022/03/17 15:53:12;;;;;;;37.30;19.73;;;;;;;;;;5095488;28;20356;-41
2022/03/17 15:55:38;;;;;;;38.97;21.70;;;;;;;;;;5095753;28;20022;-41
2022/03/17 15:58:03;;;;;;;41.47;21.83;;;;;;;;;;5095328;28;20111;-41
2022/03/17 16:00:30;;;;;;;38.55;21.85;;;;;;;;;;5102584;28;20020;-41
2022/03/17 16:02:57;;;;;;;43.90;23.95;;;;;;;;;;5077357;28;20024;-43
2022/03/17 16:05:23;;;;;;;53.17;26.10;;;;;;;;;;5095295;28;20039;-42
2022/03/17 16:07:48;;;;;;;52.65;28.58;;;;;;;;;;5077244;28;20012;-41
2022/03/17 16:15:41;;;;;;;53.33;27.13;;;;;;;;;;5095019;28;20066;-41
2022/03/17 16:18:10;;;;;;;59.03;30.98;;;;;;;;;;5095196;28;20044;-43
2022/03/17 16:20:36;;;;;;;57.65;31.15;;;;;;;;;;5095218;28;20039;-41
2022/03/17 16:23:02;;;;;;;56.72;30.13;;;;;;;;;;5095048;28;20603;-41
2022/03/17 16:25:27;;;;;;;60.20;31.00;;;;;;;;;;5094751;28;20032;-43
2022/03/17 16:27:52;;;;;;;54.65;28.55;;;;;;;;;;5094939;28;20072;-43
2022/03/17 16:30:18;;;;;;;94.82;41.38;;;;;;;;;;5076601;28;20020;-41
2022/03/17 16:32:44;;;;;;;62.75;34.97;;;;;;;;;;5095052;28;20493;-41
2022/03/17 16:35:09;;;;;;;102.60;49.08;;;;;;;;;;5094584;28;20027;-42
2022/03/17 16:37:34;;;;;;;56.78;32.47;;;;;;;;;;5094694;28;20035;-43
2022/03/17 16:40:00;;;;;;;49.13;26.08;;;;;;;;;;5094651;28;20047;-42
2022/03/17 16:42:25;;;;;;;42.55;24.88;;;;;;;;;;5094712;28;20024;-42
2022/03/17 16:44:53;;;;;;;42.45;25.33;;;;;;;;;;5094336;28;20161;-41
2022/03/17 16:47:18;;;;;;;42.00;23.88;;;;;;;;;;5076227;28;20020;-43
2022/03/17 16:49:43;;;;;;;43.13;24.17;;;;;;;;;;5094116;28;20016;-42
2022/03/17 16:52:09;;;;;;;44.55;23.33;;;;;;;;;;5094438;28;20463;-41
2022/03/17 16:54:38;;;;;;;43.22;24.20;;;;;;;;;;5076243;28;20113;-41
2022/03/17 16:57:04;;;;;;;42.35;23.38;;;;;;;;;;5094327;28;20024;-41
2022/03/17 16:59:30;;;;;;;41.13;22.85;;;;;;;;;;5094018;28;20107;-43
2022/03/17 17:01:55;;;;;;;47.53;22.35;;;;;;;;;;5094496;28;20016;-43
2022/03/17 17:04:20;;;;;;;40.33;21.48;;;;;;;;;;5094012;28;20153;-45
2022/03/17 17:06:46;;;;;;;41.33;21.45;;;;;;;;;;5094114;28;20020;-42
2022/03/17 17:09:12;;;;;;;45.47;22.67;;;;;;;;;;5076046;28;20020;-44
2022/03/17 17:11:38;;;;;;;46.60;23.92;;;;;;;;;;5094127;28;20063;-45
2022/03/17 17:14:03;;;;;;;45.92;22.55;;;;;;;;;;5093968;28;20048;-42
2022/03/17 17:16:29;;;;;;;39.22;22.85;;;;;;;;;;5093895;28;20016;-43
2022/03/17 17:18:54;;;;;;;44.90;23.30;;;;;;;;;;5094359;28;20465;-45
2022/03/17 17:21:19;;;;;;;61.58;28.50;;;;;;;;;;5094342;28;20378;-44
2022/03/17 17:31:56;;;;;;;45.88;21.00;;;;;;;;;;5093501;28;20055;-44
2022/03/17 17:34:22;;;;;;;43.55;24.08;;;;;;;;;;5093629;28;20024;-45
2022/03/17 17:36:48;;;;;;;44.45;22.83;;;;;;;;;;5093568;28;20088;-44
2022/03/17 17:39:14;;;;;;;40.08;21.52;;;;;;;;;;5093440;28;20073;-43
2022/03/17 17:41:39;;;;;;;48.03;22.90;;;;;;;;;;5075543;28;20099;-46
2022/03/17 17:44:05;;;;;;;41.50;21.77;;;;;;;;;;5093674;28;20091;-45
2022/03/17 17:46:30;;;;;;;47.40;23.80;;;;;;;;;;5093590;28;20352;-45
2022/03/17 17:48:56;;;;;;;42.13;21.92;;;;;;;;;;5093570;28;20020;-45
2022/03/17 17:51:21;;;;;;;45.67;22.77;;;;;;;;;;5093247;28;20016;-44
2022/03/17 17:53:46;;;;;;;43.20;22.98;;;;;;;;;;5093480;28;20020;-44
2022/03/17 17:56:12;;;;;;;44.33;23.75;;;;;;;;;;5093234;28;20024;-44
2022/03/17 17:58:37;;;;;;;48.78;24.42;;;;;;;;;;5093375;28;20167;-43
2022/03/17 18:01:02;;;;;;;45.53;24.23;;;;;;;;;;5093124;28;20023;-46
2022/03/17 18:03:28;;;;;;;41.85;22.55;;;;;;;;;;5093139;28;20108;-46
2022/03/17 18:05:54;;;;;;;43.10;23.20;;;;;;;;;;5093326;28;20028;-44
2022/03/17 18:08:19;;;;;;;47.60;24.83;;;;;;;;;;5093101;28;20054;-46
2022/03/17 18:10:45;;;;;;;45.88;25.10;;;;;;;;;;5093173;28;20430;-45
2022/03/17 18:13:11;;;;;;;49.40;24.60;;;;;;;;;;5093036;28;20028;-45
2022/03/17 18:15:39;;;;;;;51.88;24.77;;;;;;;;;;5093068;28;20052;-45
2022/03/17 18:18:04;;;;;;;55.25;26.38;;;;;;;;;;5093193;28;20420;-47
2022/03/17 18:20:32;;;;;;;62.42;28.23;;;;;;;;;;5092998;28;20052;-45
2022/03/17 18:22:59;;;;;;;62.22;31.17;;;;;;;;;;5093012;28;20020;-47
2022/03/17 18:25:25;;;;;;;65.45;30.40;;;;;;;;;;5092625;28;20032;-46
2022/03/17 18:27:51;;;;;;;63.50;31.58;;;;;;;;;;5093016;28;20374;-44
2022/03/17 18:30:16;;;;;;;65.15;32.30;;;;;;;;;;5092921;28;20489;-44
2022/03/17 18:32:42;;;;;;;66.80;31.60;;;;;;;;;;5092677;28;20040;-45
2022/03/17 18:35:07;;;;;;;71.38;33.78;;;;;;;;;;5092922;28;20020;-44
2022/03/17 18:37:33;;;;;;;69.88;34.55;;;;;;;;;;5092916;28;20032;-44
2022/03/17 18:39:59;;;;;;;72.35;33.45;;;;;;;;;;5092705;28;20016;-47
2022/03/17 18:42:24;;;;;;;67.43;31.73;;;;;;;;;;5074987;28;20040;-44
2022/03/17 18:44:50;;;;;;;75.35;34.17;;;;;;;;;;5092913;28;20510;-49
2022/03/17 18:47:15;;;;;;;69.10;35.75;;;;;;;;;;5092707;28;20097;-46
2022/03/17 18:49:40;;;;;;;87.88;37.88;;;;;;;;;;5092711;28;20051;-46
2022/03/17 18:52:06;;;;;;;95.15;40.47;;;;;;;;;;5092795;28;20020;-44
2022/03/17 18:54:31;;;;;;;95.00;42.58;;;;;;;;;;5074305;28;20017;-46
2022/03/17 18:56:57;;;;;;;97.47;42.38;;;;;;;;;;5093002;28;20020;-45
2022/03/17 18:59:23;;;;;;;94.00;40.45;;;;;;;;;;5093058;28;20435;-46
2022/03/17 19:01:48;;;;;;;89.82;40.53;;;;;;;;;;5092632;28;20395;-45
2022/03/17 19:04:14;;;;;;;84.35;39.20;;;;;;;;;;5092587;28;20016;-45
2022/03/17 19:06:40;;;;;;;85.75;40.75;;;;;;;;;;5092658;28;20099;-45
2022/03/17 19:09:05;;;;;;;86.65;38.90;;;;;;;;;;5092421;28;20021;-43
2022/03/17 19:11:30;;;;;;;79.45;38.22;;;;;;;;;;5093424;28;20035;-44
2022/03/17 19:13:56;;;;;;;80.10;36.00;;;;;;;;;;5096225;28;20027;-44
2022/03/17 19:16:21;;;;;;;78.32;35.55;;;;;;;;;;5096202;28;20072;-48
2022/03/17 19:18:47;;;;;;;85.40;38.55;;;;;;;;;;5061499;28;20020;-45
2022/03/17 19:21:13;;;;;;;76.90;36.42;;;;;;;;;;5096273;28;20016;-47
2022/03/17 19:23:38;;;;;;;74.50;36.28;;;;;;;;;;5096032;28;20012;-46
2022/03/17 19:26:03;;;;;;;84.28;34.95;;;;;;;;;;5095884;28;20470;-45
2022/03/17 19:28:29;;;;;;;79.43;37.17;;;;;;;;;;5096358;28;20027;-44
2022/03/17 19:30:54;;;;;;;67.97;33.05;;;;;;;;;;5095952;28;20128;-43
2022/03/17 19:33:19;;;;;;;75.40;35.38;;;;;;;;;;5096017;28;20424;-47
2022/03/17 19:35:45;;;;;;;77.53;36.40;;;;;;;;;;5095914;28;20052;-46
2022/03/17 19:38:10;;;;;;;77.88;34.63;;;;;;;;;;5096039;28;20020;-47
2022/03/17 19:43:21;;;;;;;78.53;34.95;;;;;;;;;;5095820;28;20447;-46
2022/03/17 19:45:46;;;;;;;74.13;35.28;;;;;;;;;;5095944;28;20390;-47
2022/03/17 19:48:11;;;;;;;69.78;33.75;;;;;;;;;;5095779;28;20016;-45
2022/03/17 19:50:55;;;;;;;61.22;31.58;;;;;;;;;;5095654;28;20020;-43
2022/03/17 19:53:21;;;;;;;70.80;36.15;;;;;;;;;;5095914;28;20024;-47
2022/03/17 19:55:47;;;;;;;77.45;35.50;;;;;;;;;;5095689;28;20016;-43
2022/03/17 19:58:13;;;;;;;65.35;34.20;;;;;;;;;;5095588;28;20020;-43
2022/03/17 20:00:38;;;;;;;69.20;34.28;;;;;;;;;;5095589;28;20054;-45
2022/03/17 20:03:04;;;;;;;71.00;34.28;;;;;;;;;;5095507;28;20020;-43
2022/03/17 20:05:29;;;;;;;65.75;34.35;;;;;;;;;;5095270;28;20535;-45
2022/03/17 20:07:55;;;;;;;71.85;33.85;;;;;;;;;;5095224;28;20016;-45
2022/03/17 20:10:20;;;;;;;67.70;35.67;;;;;;;;;;5095467;28;20024;-45
2022/03/17 20:15:29;;;;;;;66.82;32.00;;;;;;;;;;5095253;28;20485;-44
2022/03/17 20:17:57;;;;;;;67.72;32.40;;;;;;;;;;5095104;28;20496;-43
2022/03/17 20:20:25;;;;;;;64.40;32.72;;;;;;;;;;5094965;28;20049;-43
2022/03/17 20:22:51;;;;;;;61.97;31.25;;;;;;;;;;5095207;28;20028;-43
2022/03/17 20:25:16;;;;;;;60.55;30.17;;;;;;;;;;5095033;28;20089;-45
2022/03/17 20:27:44;;;;;;;67.55;31.40;;;;;;;;;;5095139;28;20016;-45
2022/03/17 20:30:11;;;;;;;65.22;30.95;;;;;;;;;;5094855;28;20111;-43
2022/03/17 20:32:38;;;;;;;61.28;31.30;;;;;;;;;;5094649;28;20486;-43
2022/03/17 20:35:03;;;;;;;65.20;34.20;;;;;;;;;;5095399;28;20023;-45
2022/03/17 20:37:29;;;;;;;61.33;32.42;;;;;;;;;;5095243;28;20104;-43
2022/03/17 20:39:55;;;;;;;68.95;30.55;;;;;;;;;;5094826;28;20059;-44
2022/03/17 20:42:20;;;;;;;68.93;32.30;;;;;;;;;;5094859;28;20056;-43
2022/03/17 20:44:45;;;;;;;65.45;32.97;;;;;;;;;;5094518;28;20028;-45
2022/03/17 20:47:10;;;;;;;66.43;31.98;;;;;;;;;;5094524;28;20020;-43
2022/03/17 20:49:36;;;;;;;60.05;31.55;;;;;;;;;;5094346;28;20020;-45
2022/03/17 20:52:03;;;;;;;62.03;31.67;;;;;;;;;;5094492;28;20019;-43
2022/03/17 20:54:28;;;;;;;63.72;30.42;;;;;;;;;;5094518;28;20027;-45
2022/03/17 20:56:54;;;;;;;63.53;31.33;;;;;;;;;;5094488;28;20020;-45
2022/03/17 20:59:19;;;;;;;59.97;29.80;;;;;;;;;;5094360;28;20107;-44
2022/03/17 21:01:45;;;;;;;58.95;30.58;;;;;;;;;;5094400;28;20073;-43
2022/03/17 21:04:10;;;;;;;62.05;30.17;;;;;;;;;;5094070;28;20027;-43
2022/03/17 21:06:35;;;;;;;55.53;26.83;;;;;;;;;;5094045;28;20058;-43
2022/03/17 21:09:02;;;;;;;58.53;29.92;;;;;;;;;;5094206;28;20027;-44
2022/03/17 21:11:28;;;;;;;57.63;28.92;;;;;;;;;;5094040;28;20519;-45
2022/03/17 21:13:53;;;;;;;56.78;28.83;;;;;;;;;;5094123;28;20024;-43
2022/03/17 21:16:18;;;;;;;65.18;31.23;;;;;;;;;;5099029;28;20076;-46
2022/03/17 21:18:44;;;;;;;67.60;33.55;;;;;;;;;;5095843;28;20020;-43
2022/03/17 21:21:18;;;;;;;68.40;32.28;;;;;;;;;;5075840;28;20024;-42
2022/03/17 21:23:45;;;;;;;65.53;31.58;;;;;;;;;;5094125;28;20458;-46
2022/03/17 21:26:10;;;;;;;66.82;33.03;;;;;;;;;;5075600;28;20074;-45
2022/03/17 21:28:35;;;;;;;66.30;32.20;;;;;;;;;;5093964;28;20043;-43
2022/03/17 21:31:01;;;;;;;67.15;33.70;;;;;;;;;;5093835;28;20147;-44
2022/03/17 21:33:26;;;;;;;72.28;34.28;;;;;;;;;;5093537;28;20478;-43
2022/03/17 21:35:52;;;;;;;63.00;31.98;;;;;;;;;;5093347;28;20482;-44
2022/03/17 21:38:18;;;;;;;62.80;31.50;;;;;;;;;;5093807;28;20024;-43
2022/03/17 21:40:43;;;;;;;80.25;36.33;;;;;;;;;;5075465;28;20386;-48
2022/03/17 21:43:09;;;;;;;61.97;31.85;;;;;;;;;;5093590;28;20013;-43
2022/03/17 21:45:34;;;;;;;76.95;34.08;;;;;;;;;;5093487;28;20386;-43
2022/03/17 21:48:00;;;;;;;65.65;33.50;;;;;;;;;;5093870;28;20445;-43
2022/03/17 21:50:26;;;;;;;71.35;34.25;;;;;;;;;;5093482;28;20475;-44
2022/03/17 21:52:51;;;;;;;69.65;34.70;;;;;;;;;;5093564;28;20035;-42
2022/03/17 21:55:19;;;;;;;72.95;34.75;;;;;;;;;;5093591;28;20020;-43
2022/03/17 21:57:44;;;;;;;74.68;33.65;;;;;;;;;;5093338;28;20030;-44
2022/03/17 22:00:10;;;;;;;65.90;32.22;;;;;;;;;;5075085;28;20111;-42
2022/03/17 22:02:35;;;;;;;72.40;32.72;;;;;;;;;;5093143;28;20028;-42
2022/03/17 22:05:02;;;;;;;66.90;33.20;;;;;;;;;;5074916;28;20036;-43
2022/03/17 22:07:27;;;;;;;72.15;33.72;;;;;;;;;;5093379;28;20023;-43
2022/03/17 22:09:52;;;;;;;63.78;33.58;;;;;;;;;;5093250;28;20450;-43
2022/03/17 22:12:18;;;;;;;68.93;33.45;;;;;;;;;;5093237;28;20469;-42
2022/03/17 22:14:44;;;;;;;69.88;32.00;;;;;;;;;;5093146;28;20374;-42
2022/03/17 22:17:10;;;;;;;70.47;32.28;;;;;;;;;;5093006;28;20020;-45
2022/03/17 22:19:36;;;;;;;63.15;31.75;;;;;;;;;;5074781;28;20523;-42
2022/03/17 22:22:01;;;;;;;70.07;34.00;;;;;;;;;;5093016;28;20047;-43
2022/03/17 22:24:26;;;;;;;67.60;34.33;;;;;;;;;;5092919;28;20398;-43
2022/03/17 22:26:51;;;;;;;71.18;35.08;;;;;;;;;;5093133;28;20450;-43
2022/03/17 22:29:18;;;;;;;67.32;34.47;;;;;;;;;;5093026;28;20069;-43
2022/03/17 22:31:43;;;;;;;70.60;32.42;;;;;;;;;;5092954;28;20040;-43
2022/03/17 22:34:08;;;;;;;74.45;36.05;;;;;;;;;;5092731;28;20020;-43
2022/03/17 22:36:36;;;;;;;73.40;33.80;;;;;;;;;;5093048;28;20020;-42
2022/03/17 22:39:01;;;;;;;70.65;34.60;;;;;;;;;;5092864;28;20024;-43
2022/03/17 22:41:33;;;;;;;73.15;35.97;;;;;;;;;;5093003;28;20023;-44
2022/03/17 22:44:00;;;;;;;68.18;34.45;;;;;;;;;;5092972;28;20016;-42
2022/03/17 22:46:25;;;;;;;72.85;35.10;;;;;;;;;;5093669;28;20049;-44
2022/03/17 22:48:51;;;;;;;76.32;35.15;;;;;;;;;;5096910;28;20035;-43
2022/03/17 22:51:18;;;;;;;73.20;33.67;;;;;;;;;;5097115;28;20020;-43
2022/03/17 22:53:43;;;;;;;77.18;36.08;;;;;;;;;;5096965;28;20020;-43
2022/03/17 22:56:09;;;;;;;73.25;36.72;;;;;;;;;;5096869;28;20038;-43
2022/03/17 22:58:34;;;;;;;78.95;38.17;;;;;;;;;;5096628;28;20028;-42
2022/03/17 23:01:00;;;;;;;85.50;39.67;;;;;;;;;;5096630;28;20023;-43
2022/03/17 23:03:25;;;;;;;79.68;38.45;;;;;;;;;;5096503;28;20451;-42
2022/03/17 23:05:51;;;;;;;72.95;33.92;;;;;;;;;;5078476;28;20032;-46
2022/03/17 23:08:17;;;;;;;75.10;35.78;;;;;;;;;;5096478;28;20026;-44
2022/03/17 23:10:44;;;;;;;86.32;38.17;;;;;;;;;;5096500;28;20043;-45
2022/03/17 23:13:10;;;;;;;89.38;42.58;;;;;;;;;;5096561;28;20015;-45
2022/03/17 23:15:37;;;;;;;72.38;36.42;;;;;;;;;;5096386;28;20382;-42
2022/03/17 23:18:03;;;;;;;80.53;36.58;;;;;;;;;;5096111;28;20016;-45
2022/03/17 23:20:28;;;;;;;81.75;38.25;;;;;;;;;;5096178;28;20023;-42
2022/03/17 23:22:54;;;;;;;79.45;38.63;;;;;;;;;;5096229;28;20023;-43
2022/03/17 23:25:19;;;;;;;76.25;38.30;;;;;;;;;;5096090;28;20111;-43
2022/03/17 23:27:45;;;;;;;79.78;39.58;;;;;;;;;;5096160;28;20024;-43
2022/03/17 23:30:10;;;;;;;83.32;40.38;;;;;;;;;;5096086;28;20020;-45
2022/03/17 23:32:36;;;;;;;87.00;39.70;;;;;;;;;;5095557;28;20479;-43
2022/03/17 23:35:03;;;;;;;85.55;42.60;;;;;;;;;;5096465;28;20442;-43
2022/03/17 23:37:28;;;;;;;70.75;38.30;;;;;;;;;;5096162;28;20019;-44
2022/03/17 23:39:54;;;;;;;88.65;41.70;;;;;;;;;;5096159;28;20024;-42
2022/03/17 23:42:19;;;;;;;91.53;41.97;;;;;;;;;;5096043;28;20091;-44
2022/03/17 23:44:45;;;;;;;98.25;47.03;;;;;;;;;;5095686;28;20074;-43
2022/03/17 23:47:10;;;;;;;96.60;45.53;;;;;;;;;;5095761;28;20027;-43
2022/03/17 23:49:36;;;;;;;101.43;43.80;;;;;;;;;;5096084;28;20028;-44
2022/03/17 23:54:45;;;;;;;84.20;41.85;;;;;;;;;;5095913;28;20047;-44
2022/03/17 23:57:10;;;;;;;92.32;43.72;;;;;;;;;;5095196;28;20447;-44
2022/03/17 23:59:36;;;;;;;97.45;46.53;;;;;;;;;;5095414;28;20020;-46
